Snake River Valley :: ScipioA1

liberation: 2021-10-22  08:30     latitude: 39.260370     longitude: -112.117940 28 birds
# LOFT PRING MILES ARRIVAL SPEED ToWin
1 Acorn Loft AU21-ARPU-1726 290.899 2021-10-22 13:52:49.244 1585.965 00:00:00
2 Acorn Loft AU21-ARPU-1722 290.899 2021-10-22 13:52:50.426 1585.869 00:00:01
3 M&T Wall AU21-SRV-0357 302.17 2021-10-22 14:09:05.734 1568.346 00:03:46
4 M&T Wall AU21-SRV-0019 302.17 2021-10-22 14:09:07.327 1568.223 00:03:48
5 M&T Wall AU21-SRV-0365 302.17 2021-10-22 14:09:07.696 1568.195 00:03:48
6 M&T Wall AU21-SRV-0006 302.17 2021-10-22 14:09:08.099 1568.164 00:03:48
7 M&T Wall AU21-SRV-0375 302.17 2021-10-22 14:09:08.464 1568.135 00:03:49
8 M&T Wall AU21-SRV-0016 302.17 2021-10-22 14:09:09.282 1568.072 00:03:50
9 M&T Wall AU21-SRV-0371 302.17 2021-10-22 14:09:10.493 1567.979 00:03:51
10 M&T Wall AU21-SRV-0049 302.17 2021-10-22 14:09:10.871 1567.950 00:03:51
11 M&T Wall AU21-SRV-0013 302.17 2021-10-22 14:09:11.993 1567.864 00:03:52
12 M&T Wall AU21-SRV-0023 302.17 2021-10-22 14:09:14.022 1567.707 00:03:54
13 M&T Wall AU21-SRV-0017 302.17 2021-10-22 14:09:15.469 1567.596 00:03:56
14 M&T Wall AU21-SRV-0033 302.17 2021-10-22 14:09:17.584 1567.433 00:03:58
15 AU21-SRV-0202 307.949 2021-10-22 14:17:07.870 1561.343 00:05:23
16 AU21-SRV-0212 307.949 2021-10-22 14:17:09.337 1561.234 00:05:25
17 M&T Wall AU21-SRV-0028 302.17 2021-10-22 14:11:29.850 1557.315 00:06:10
18 M&T Wall AU21-SRV-0008 302.17 2021-10-22 14:11:31.204 1557.212 00:06:11
19 M&T Wall AU21-SRV-0351 302.17 2021-10-22 14:11:55.222 1555.389 00:06:36
20 M&T Wall AU21-SRV-0024 302.17 2021-10-22 14:11:56.128 1555.320 00:06:36
21 M&T Wall AU21-SRV-0361 302.17 2021-10-22 14:12:31.825 1552.619 00:07:12
22 M&T Wall AU21-SRV-0003 302.17 2021-10-22 14:13:45.134 1547.100 00:08:25
23 M&T Wall AU21-SRV-0383 302.17 2021-10-22 14:17:25.362 1530.755 00:12:06
24 AU21-SRV-0211 307.949 2021-10-22 14:35:14.598 1483.918 00:23:30
25 AU21-SRV-0214 307.949 2021-10-22 14:37:54.670 1473.157 00:26:10
26 AU21-SRV-0238 307.949 2021-10-22 14:43:30.418 1451.087 00:31:46
27 AU21-SRV-0204 307.949 2021-10-22 17:19:08.769 1024.275 03:07:24
AU21-SRV-0227 0 0000-00-00 00:00:00.000 0.000 00:00:00